sensor_id;sensor_type;location;lat;lon;timestamp;pressure;altitude;pressure_sealevel;temperature;humidity
44001;BME280;29660;42.892;24.710;2023-04-06T00:01:19;96641.75;;;1.35;100.00
44001;BME280;29660;42.892;24.710;2023-04-06T00:06:42;96623.00;;;1.14;100.00
44001;BME280;29660;42.892;24.710;2023-04-06T00:12:04;96648.50;;;1.31;100.00
44001;BME280;29660;42.892;24.710;2023-04-06T00:17:27;96658.56;;;1.34;100.00
44001;BME280;29660;42.892;24.710;2023-04-06T00:22:50;96468.31;;;0.22;100.00
44001;BME280;29660;42.892;24.710;2023-04-06T00:28:12;96674.72;;;1.42;100.00
44001;BME280;29660;42.892;24.710;2023-04-06T00:33:34;96519.09;;;0.44;100.00
44001;BME280;29660;42.892;24.710;2023-04-06T00:38:57;96658.28;;;1.18;100.00
44001;BME280;29660;42.892;24.710;2023-04-06T00:44:20;96586.19;;;0.69;100.00
44001;BME280;29660;42.892;24.710;2023-04-06T00:49:42;96609.03;;;0.68;100.00
44001;BME280;29660;42.892;24.710;2023-04-06T00:55:05;96416.09;;;-0.60;100.00
44001;BME280;29660;42.892;24.710;2023-04-06T01:00:32;96635.22;;;0.80;100.00
44001;BME280;29660;42.892;24.710;2023-04-06T01:05:56;96591.81;;;0.20;100.00
44001;BME280;29660;42.892;24.710;2023-04-06T01:11:27;96337.06;;;-1.21;100.00
44001;BME280;29660;42.892;24.710;2023-04-06T01:16:51;96425.88;;;-0.67;100.00
44001;BME280;29660;42.892;24.710;2023-04-06T01:22:18;96585.63;;;0.27;100.00
44001;BME280;29660;42.892;24.710;2023-04-06T01:27:56;96621.19;;;0.22;100.00
44001;BME280;29660;42.892;24.710;2023-04-06T01:33:34;96560.84;;;-0.18;100.00
44001;BME280;29660;42.892;24.710;2023-04-06T01:39:00;96298.47;;;-1.96;100.00
44001;BME280;29660;42.892;24.710;2023-04-06T01:44:29;96622.34;;;0.27;100.00
44001;BME280;29660;42.892;24.710;2023-04-06T01:50:01;96610.84;;;0.16;100.00
44001;BME280;29660;42.892;24.710;2023-04-06T01:55:31;96358.69;;;-1.26;100.00
44001;BME280;29660;42.892;24.710;2023-04-06T02:01:12;96329.91;;;-1.49;100.00
44001;BME280;29660;42.892;24.710;2023-04-06T02:06:47;96402.22;;;-0.96;100.00
44001;BME280;29660;42.892;24.710;2023-04-06T02:12:14;96563.53;;;-0.01;100.00
44001;BME280;29660;42.892;24.710;2023-04-06T02:17:37;96322.16;;;-1.44;100.00
44001;BME280;29660;42.892;24.710;2023-04-06T02:22:59;96321.13;;;-1.43;100.00
44001;BME280;29660;42.892;24.710;2023-04-06T02:28:22;96279.97;;;-1.71;100.00
44001;BME280;29660;42.892;24.710;2023-04-06T02:33:44;96560.78;;;0.17;100.00
44001;BME280;29660;42.892;24.710;2023-04-06T02:39:09;96524.34;;;0.04;100.00
44001;BME280;29660;42.892;24.710;2023-04-06T02:44:32;96302.03;;;-1.32;100.00
44001;BME280;29660;42.892;24.710;2023-04-06T02:49:54;96593.28;;;0.68;100.00
44001;BME280;29660;42.892;24.710;2023-04-06T02:55:17;96571.22;;;0.41;100.00
44001;BME280;29660;42.892;24.710;2023-04-06T03:00:40;96463.56;;;-0.33;100.00
44001;BME280;29660;42.892;24.710;2023-04-06T03:06:04;96459.09;;;-0.33;100.00
44001;BME280;29660;42.892;24.710;2023-04-06T03:11:26;96501.66;;;-0.02;100.00
44001;BME280;29660;42.892;24.710;2023-04-06T03:16:49;96625.81;;;0.67;100.00
44001;BME280;29660;42.892;24.710;2023-04-06T03:22:15;96601.16;;;0.68;100.00
44001;BME280;29660;42.892;24.710;2023-04-06T03:27:39;96631.53;;;0.93;100.00
44001;BME280;29660;42.892;24.710;2023-04-06T03:33:06;96521.19;;;0.31;100.00
44001;BME280;29660;42.892;24.710;2023-04-06T03:38:36;96471.78;;;-0.01;100.00
44001;BME280;29660;42.892;24.710;2023-04-06T03:44:05;96436.31;;;-0.32;100.00
44001;BME280;29660;42.892;24.710;2023-04-06T03:49:27;96595.56;;;0.93;100.00
44001;BME280;29660;42.892;24.710;2023-04-06T03:55:08;96320.03;;;-0.71;100.00
44001;BME280;29660;42.892;24.710;2023-04-06T04:00:31;96623.94;;;1.08;100.00
44001;BME280;29660;42.892;24.710;2023-04-06T04:05:54;96591.69;;;0.96;100.00
44001;BME280;29660;42.892;24.710;2023-04-06T04:11:20;96614.16;;;1.20;100.00
44001;BME280;29660;42.892;24.710;2023-04-06T04:16:49;96326.38;;;-0.67;100.00
44001;BME280;29660;42.892;24.710;2023-04-06T04:22:29;96328.06;;;-0.50;100.00
44001;BME280;29660;42.892;24.710;2023-04-06T04:27:51;96363.88;;;-0.27;100.00
44001;BME280;29660;42.892;24.710;2023-04-06T04:33:15;96572.06;;;0.98;100.00
44001;BME280;29660;42.892;24.710;2023-04-06T04:38:38;96594.59;;;1.11;100.00
44001;BME280;29660;42.892;24.710;2023-04-06T04:44:00;96538.91;;;0.81;100.00
44001;BME280;29660;42.892;24.710;2023-04-06T04:49:24;96551.50;;;0.95;100.00
44001;BME280;29660;42.892;24.710;2023-04-06T04:54:46;96283.69;;;-0.68;100.00
44001;BME280;29660;42.892;24.710;2023-04-06T05:00:18;96617.41;;;1.56;100.00
44001;BME280;29660;42.892;24.710;2023-04-06T05:05:40;96133.19;;;-1.51;100.00
44001;BME280;29660;42.892;24.710;2023-04-06T05:11:03;96483.41;;;0.89;100.00
44001;BME280;29660;42.892;24.710;2023-04-06T05:16:30;96359.47;;;0.36;100.00
44001;BME280;29660;42.892;24.710;2023-04-06T05:21:52;96513.16;;;1.45;100.00
44001;BME280;29660;42.892;24.710;2023-04-06T05:27:15;96321.88;;;0.31;100.00
44001;BME280;29660;42.892;24.710;2023-04-06T05:32:37;96538.84;;;1.77;100.00
44001;BME280;29660;42.892;24.710;2023-04-06T05:38:00;96317.50;;;0.53;100.00
44001;BME280;29660;42.892;24.710;2023-04-06T05:43:22;96560.94;;;2.14;100.00
44001;BME280;29660;42.892;24.710;2023-04-06T05:48:48;96307.06;;;0.75;100.00
44001;BME280;29660;42.892;24.710;2023-04-06T05:54:14;96517.06;;;2.20;100.00
44001;BME280;29660;42.892;24.710;2023-04-06T05:59:37;96301.31;;;0.95;100.00
44001;BME280;29660;42.892;24.710;2023-04-06T06:05:00;96261.91;;;0.73;100.00
44001;BME280;29660;42.892;24.710;2023-04-06T06:10:23;96279.00;;;0.97;100.00
44001;BME280;29660;42.892;24.710;2023-04-06T06:15:46;96496.00;;;2.42;100.00
44001;BME280;29660;42.892;24.710;2023-04-06T06:21:08;96545.88;;;2.76;100.00
44001;BME280;29660;42.892;24.710;2023-04-06T06:26:32;96566.72;;;3.09;100.00
44001;BME280;29660;42.892;24.710;2023-04-06T06:31:55;96575.47;;;3.42;100.00
44001;BME280;29660;42.892;24.710;2023-04-06T06:37:18;96558.19;;;3.61;100.00
44001;BME280;29660;42.892;24.710;2023-04-06T06:42:42;96362.88;;;2.46;100.00
44001;BME280;29660;42.892;24.710;2023-04-06T06:48:30;96511.31;;;3.68;100.00
44001;BME280;29660;42.892;24.710;2023-04-06T06:53:52;96292.38;;;2.48;95.30
44001;BME280;29660;42.892;24.710;2023-04-06T06:59:15;96397.31;;;3.46;93.41
44001;BME280;29660;42.892;24.710;2023-04-06T07:04:38;96275.09;;;3.10;91.19
44001;BME280;29660;42.892;24.710;2023-04-06T07:10:00;96545.16;;;5.23;88.90
44001;BME280;29660;42.892;24.710;2023-04-06T07:15:23;96337.66;;;4.23;85.30
44001;BME280;29660;42.892;24.710;2023-04-06T07:20:46;96368.34;;;4.70;80.80
44001;BME280;29660;42.892;24.710;2023-04-06T07:26:09;96548.78;;;6.19;78.38
44001;BME280;29660;42.892;24.710;2023-04-06T07:31:31;96271.91;;;4.83;67.68
44001;BME280;29660;42.892;24.710;2023-04-06T07:36:54;96260.47;;;5.13;63.79
44001;BME280;29660;42.892;24.710;2023-04-06T07:42:16;96527.97;;;7.06;59.63
44001;BME280;29660;42.892;24.710;2023-04-06T07:47:39;96510.28;;;7.30;59.61
44001;BME280;29660;42.892;24.710;2023-04-06T07:53:02;96515.88;;;7.63;58.68
44001;BME280;29660;42.892;24.710;2023-04-06T07:58:25;96386.50;;;6.92;56.45
44001;BME280;29660;42.892;24.710;2023-04-06T08:03:48;96341.63;;;6.71;56.09
44001;BME280;29660;42.892;24.710;2023-04-06T08:09:11;96339.50;;;7.02;54.89
44001;BME280;29660;42.892;24.710;2023-04-06T08:14:33;96471.91;;;8.05;52.98
44001;BME280;29660;42.892;24.710;2023-04-06T08:19:55;96544.38;;;8.05;51.69
44001;BME280;29660;42.892;24.710;2023-04-06T08:25:36;96174.81;;;6.03;52.26
44001;BME280;29660;42.892;24.710;2023-04-06T08:30:58;96497.13;;;8.07;53.07
44001;BME280;29660;42.892;24.710;2023-04-06T08:36:20;96512.75;;;8.09;50.30
44001;BME280;29660;42.892;24.710;2023-04-06T08:41:44;96498.38;;;8.39;50.52
44001;BME280;29660;42.892;24.710;2023-04-06T08:47:07;96281.13;;;7.07;50.09
44001;BME280;29660;42.892;24.710;2023-04-06T08:52:31;96518.50;;;8.64;50.33
44001;BME280;29660;42.892;24.710;2023-04-06T08:58:13;96540.97;;;8.77;49.57
44001;BME280;29660;42.892;24.710;2023-04-06T09:04:04;96313.34;;;7.44;49.74
44001;BME280;29660;42.892;24.710;2023-04-06T09:09:31;96525.06;;;8.72;49.24
44001;BME280;29660;42.892;24.710;2023-04-06T09:14:54;96275.59;;;7.28;49.72
44001;BME280;29660;42.892;24.710;2023-04-06T09:20:24;96510.25;;;9.22;49.96
44001;BME280;29660;42.892;24.710;2023-04-06T09:25:50;96227.81;;;7.52;49.53
44001;BME280;29660;42.892;24.710;2023-04-06T09:31:14;96189.00;;;7.37;48.39
44001;BME280;29660;42.892;24.710;2023-04-06T09:36:37;96460.88;;;9.16;48.39
44001;BME280;29660;42.892;24.710;2023-04-06T09:42:03;96513.28;;;9.81;47.18
44001;BME280;29660;42.892;24.710;2023-04-06T09:47:26;96211.94;;;8.22;47.12
44001;BME280;29660;42.892;24.710;2023-04-06T09:52:51;96485.00;;;9.85;47.04
44001;BME280;29660;42.892;24.710;2023-04-06T09:58:17;96421.09;;;9.39;46.09
44001;BME280;29660;42.892;24.710;2023-04-06T10:03:51;96477.00;;;9.85;46.62
44001;BME280;29660;42.892;24.710;2023-04-06T10:09:15;96211.13;;;8.41;46.58
44001;BME280;29660;42.892;24.710;2023-04-06T10:14:39;96213.50;;;8.42;46.84
44001;BME280;29660;42.892;24.710;2023-04-06T10:20:11;96361.41;;;9.72;45.15
44001;BME280;29660;42.892;24.710;2023-04-06T10:25:36;96116.97;;;7.81;44.89
44001;BME280;29660;42.892;24.710;2023-04-06T10:31:01;96450.59;;;10.02;46.20
44001;BME280;29660;42.892;24.710;2023-04-06T10:36:28;96411.91;;;9.91;44.39
44001;BME280;29660;42.892;24.710;2023-04-06T10:41:51;96451.16;;;10.13;44.27
44001;BME280;29660;42.892;24.710;2023-04-06T10:47:17;96383.19;;;9.88;43.04
44001;BME280;29660;42.892;24.710;2023-04-06T10:52:40;96246.91;;;8.76;43.35
44001;BME280;29660;42.892;24.710;2023-04-06T10:58:05;96240.44;;;8.82;43.10
44001;BME280;29660;42.892;24.710;2023-04-06T11:03:47;96481.66;;;10.21;43.90
44001;BME280;29660;42.892;24.710;2023-04-06T11:09:10;96312.69;;;9.17;44.48
44001;BME280;29660;42.892;24.710;2023-04-06T11:14:32;96465.88;;;10.11;43.44
44001;BME280;29660;42.892;24.710;2023-04-06T11:19:55;96173.78;;;8.65;42.46
44001;BME280;29660;42.892;24.710;2023-04-06T11:25:17;96400.16;;;10.34;42.20
44001;BME280;29660;42.892;24.710;2023-04-06T11:30:40;96164.31;;;8.58;41.29
44001;BME280;29660;42.892;24.710;2023-04-06T11:36:02;96420.47;;;10.16;42.57
44001;BME280;29660;42.892;24.710;2023-04-06T11:41:25;96388.91;;;10.09;43.09
44001;BME280;29660;42.892;24.710;2023-04-06T11:46:52;96406.03;;;10.44;41.76
44001;BME280;29660;42.892;24.710;2023-04-06T11:52:15;96444.25;;;10.90;42.95
44001;BME280;29660;42.892;24.710;2023-04-06T11:57:38;96366.19;;;10.39;42.26
44001;BME280;29660;42.892;24.710;2023-04-06T12:03:00;96103.97;;;8.87;41.84
44001;BME280;29660;42.892;24.710;2023-04-06T12:08:22;96429.00;;;10.68;43.35
44001;BME280;29660;42.892;24.710;2023-04-06T12:13:47;96196.41;;;9.31;42.09
44001;BME280;29660;42.892;24.710;2023-04-06T12:19:09;96376.50;;;10.54;42.44
44001;BME280;29660;42.892;24.710;2023-04-06T12:24:31;96151.31;;;9.12;42.48
44001;BME280;29660;42.892;24.710;2023-04-06T12:29:53;96199.38;;;9.43;42.02
44001;BME280;29660;42.892;24.710;2023-04-06T12:35:17;96375.78;;;10.63;41.85
44001;BME280;29660;42.892;24.710;2023-04-06T12:40:39;96372.97;;;10.45;42.00
44001;BME280;29660;42.892;24.710;2023-04-06T12:46:01;96365.69;;;10.09;43.02
44001;BME280;29660;42.892;24.710;2023-04-06T12:51:25;96191.91;;;8.90;43.42
44001;BME280;29660;42.892;24.710;2023-04-06T12:56:49;96278.19;;;9.39;42.83
44001;BME280;29660;42.892;24.710;2023-04-06T13:02:11;96134.06;;;8.41;42.57
44001;BME280;29660;42.892;24.710;2023-04-06T13:07:33;96401.31;;;10.14;42.85
44001;BME280;29660;42.892;24.710;2023-04-06T13:12:56;96139.72;;;8.53;43.47
44001;BME280;29660;42.892;24.710;2023-04-06T13:18:18;96143.84;;;8.45;43.20
44001;BME280;29660;42.892;24.710;2023-04-06T13:23:40;96391.16;;;10.16;43.57
44001;BME280;29660;42.892;24.710;2023-04-06T13:29:03;96364.28;;;9.76;43.76
44001;BME280;29660;42.892;24.710;2023-04-06T13:34:25;96381.59;;;10.01;43.75
44001;BME280;29660;42.892;24.710;2023-04-06T13:40:06;96200.75;;;8.72;44.32
44001;BME280;29660;42.892;24.710;2023-04-06T13:45:28;96150.84;;;8.22;44.54
44001;BME280;29660;42.892;24.710;2023-04-06T13:50:50;96140.50;;;8.21;44.62
44001;BME280;29660;42.892;24.710;2023-04-06T13:56:12;96344.66;;;9.44;44.87
44001;BME280;29660;42.892;24.710;2023-04-06T14:01:35;96333.16;;;9.02;45.19
44001;BME280;29660;42.892;24.710;2023-04-06T14:06:57;96107.78;;;7.60;44.99
44001;BME280;29660;42.892;24.710;2023-04-06T14:12:20;96258.69;;;8.56;44.54
44001;BME280;29660;42.892;24.710;2023-04-06T14:17:42;96188.19;;;8.12;46.22
44001;BME280;29660;42.892;24.710;2023-04-06T14:23:04;96153.03;;;7.69;45.79
44001;BME280;29660;42.892;24.710;2023-04-06T14:28:27;96370.09;;;9.04;46.26
44001;BME280;29660;42.892;24.710;2023-04-06T14:33:50;96412.00;;;9.12;46.83
44001;BME280;29660;42.892;24.710;2023-04-06T14:39:12;96161.13;;;7.40;47.25
44001;BME280;29660;42.892;24.710;2023-04-06T14:44:34;96386.75;;;8.77;47.11
44001;BME280;29660;42.892;24.710;2023-04-06T14:49:58;96118.59;;;6.88;48.14
44001;BME280;29660;42.892;24.710;2023-04-06T14:55:20;96382.72;;;8.60;47.17
44001;BME280;29660;42.892;24.710;2023-04-06T15:00:42;96263.91;;;7.72;47.63
44001;BME280;29660;42.892;24.710;2023-04-06T15:06:05;96318.63;;;8.10;48.33
44001;BME280;29660;42.892;24.710;2023-04-06T15:11:33;96341.34;;;8.17;47.94
44001;BME280;29660;42.892;24.710;2023-04-06T15:16:55;96310.53;;;7.78;48.27
44001;BME280;29660;42.892;24.710;2023-04-06T15:22:17;96132.19;;;6.33;48.94
44001;BME280;29660;42.892;24.710;2023-04-06T15:27:39;96204.22;;;6.59;49.91
44001;BME280;29660;42.892;24.710;2023-04-06T15:33:03;95947.06;;;4.67;51.09
44001;BME280;29660;42.892;24.710;2023-04-06T15:38:27;96355.25;;;7.18;51.47
44001;BME280;29660;42.892;24.710;2023-04-06T15:43:51;96158.25;;;5.87;51.14
44001;BME280;29660;42.892;24.710;2023-04-06T15:49:13;96160.41;;;5.80;51.87
44001;BME280;29660;42.892;24.710;2023-04-06T15:54:35;96257.31;;;6.49;51.15
44001;BME280;29660;42.892;24.710;2023-04-06T16:00:22;96149.44;;;5.57;51.19
44001;BME280;29660;42.892;24.710;2023-04-06T16:05:46;96468.84;;;7.40;51.49
44001;BME280;29660;42.892;24.710;2023-04-06T16:11:20;95938.97;;;4.04;52.26
44001;BME280;29660;42.892;24.710;2023-04-06T16:16:42;96404.25;;;6.96;51.26
44001;BME280;29660;42.892;24.710;2023-04-06T16:22:05;96181.81;;;5.44;51.49
44001;BME280;29660;42.892;24.710;2023-04-06T16:27:27;96188.19;;;5.38;51.76
44001;BME280;29660;42.892;24.710;2023-04-06T16:32:49;96387.81;;;6.60;51.48
44001;BME280;29660;42.892;24.710;2023-04-06T16:38:13;96363.28;;;6.44;52.20
44001;BME280;29660;42.892;24.710;2023-04-06T16:43:35;96479.41;;;7.10;52.58
44001;BME280;29660;42.892;24.710;2023-04-06T16:48:58;96415.13;;;6.60;52.82
44001;BME280;29660;42.892;24.710;2023-04-06T16:54:21;96198.19;;;4.91;52.85
44001;BME280;29660;42.892;24.710;2023-04-06T16:59:43;96230.19;;;4.80;53.81
44001;BME280;29660;42.892;24.710;2023-04-06T17:05:05;96527.44;;;6.64;54.64
44001;BME280;29660;42.892;24.710;2023-04-06T17:10:27;96232.31;;;4.67;53.30
44001;BME280;29660;42.892;24.710;2023-04-06T17:15:54;96264.28;;;4.56;53.93
44001;BME280;29660;42.892;24.710;2023-04-06T17:21:16;96453.09;;;5.55;53.42
44001;BME280;29660;42.892;24.710;2023-04-06T17:26:41;96578.16;;;6.27;52.47
44001;BME280;29660;42.892;24.710;2023-04-06T17:32:03;96597.50;;;6.12;51.45
44001;BME280;29660;42.892;24.710;2023-04-06T17:37:26;96253.72;;;3.79;50.99
44001;BME280;29660;42.892;24.710;2023-04-06T17:42:48;96353.53;;;4.33;51.19
44001;BME280;29660;42.892;24.710;2023-04-06T17:48:10;96320.22;;;4.12;51.13
44001;BME280;29660;42.892;24.710;2023-04-06T17:53:33;96602.31;;;5.95;52.07
44001;BME280;29660;42.892;24.710;2023-04-06T17:58:55;96548.31;;;5.45;52.54
44001;BME280;29660;42.892;24.710;2023-04-06T18:04:20;96495.41;;;4.94;52.41
44001;BME280;29660;42.892;24.710;2023-04-06T18:09:42;96641.97;;;5.75;51.92
44001;BME280;29660;42.892;24.710;2023-04-06T18:15:05;96517.34;;;4.84;52.04
44001;BME280;29660;42.892;24.710;2023-04-06T18:20:27;96299.94;;;3.24;53.11
44001;BME280;29660;42.892;24.710;2023-04-06T18:25:49;96650.94;;;5.48;53.23
44001;BME280;29660;42.892;24.710;2023-04-06T18:31:12;96408.53;;;3.89;53.26
44001;BME280;29660;42.892;24.710;2023-04-06T18:36:34;96711.75;;;5.43;53.48
44001;BME280;29660;42.892;24.710;2023-04-06T18:41:57;96439.94;;;3.85;54.20
44001;BME280;29660;42.892;24.710;2023-04-06T18:47:19;96387.84;;;3.50;54.46
44001;BME280;29660;42.892;24.710;2023-04-06T18:52:41;96647.19;;;5.24;55.33
44001;BME280;29660;42.892;24.710;2023-04-06T18:58:04;96683.75;;;5.52;53.92
44001;BME280;29660;42.892;24.710;2023-04-06T19:03:27;96694.31;;;5.57;55.10
44001;BME280;29660;42.892;24.710;2023-04-06T19:08:50;96392.34;;;3.60;54.56
44001;BME280;29660;42.892;24.710;2023-04-06T19:14:12;96381.22;;;3.48;52.68
44001;BME280;29660;42.892;24.710;2023-04-06T19:19:34;96689.00;;;5.42;53.71
44001;BME280;29660;42.892;24.710;2023-04-06T19:24:58;96443.03;;;3.77;53.56
44001;BME280;29660;42.892;24.710;2023-04-06T19:30:20;96340.13;;;3.04;51.28
44001;BME280;29660;42.892;24.710;2023-04-06T19:35:43;96704.03;;;5.26;50.87
44001;BME280;29660;42.892;24.710;2023-04-06T19:41:05;96379.69;;;3.09;51.35
44001;BME280;29660;42.892;24.710;2023-04-06T19:46:27;96628.75;;;4.61;52.07
44001;BME280;29660;42.892;24.710;2023-04-06T19:51:49;96441.00;;;3.37;52.27
44001;BME280;29660;42.892;24.710;2023-04-06T19:57:12;96464.31;;;3.55;51.89
44001;BME280;29660;42.892;24.710;2023-04-06T20:02:34;96427.28;;;3.35;52.19
44001;BME280;29660;42.892;24.710;2023-04-06T20:07:56;96728.06;;;5.20;52.44
44001;BME280;29660;42.892;24.710;2023-04-06T20:13:18;96381.44;;;2.99;51.37
44001;BME280;29660;42.892;24.710;2023-04-06T20:18:41;96707.34;;;4.96;51.27
44001;BME280;29660;42.892;24.710;2023-04-06T20:24:04;96632.09;;;4.51;50.67
44001;BME280;29660;42.892;24.710;2023-04-06T20:29:26;96666.50;;;4.61;50.78
44001;BME280;29660;42.892;24.710;2023-04-06T20:34:49;96750.16;;;4.98;50.13
44001;BME280;29660;42.892;24.710;2023-04-06T20:40:11;96422.75;;;2.93;50.63
44001;BME280;29660;42.892;24.710;2023-04-06T20:45:35;96672.28;;;4.53;50.57
44001;BME280;29660;42.892;24.710;2023-04-06T20:50:59;96420.09;;;2.88;50.27
44001;BME280;29660;42.892;24.710;2023-04-06T20:56:21;96724.09;;;4.64;50.83
44001;BME280;29660;42.892;24.710;2023-04-06T21:01:43;96695.56;;;4.66;50.37
44001;BME280;29660;42.892;24.710;2023-04-06T21:07:06;96511.19;;;3.48;50.21
44001;BME280;29660;42.892;24.710;2023-04-06T21:12:28;96704.88;;;4.74;51.42
44001;BME280;29660;42.892;24.710;2023-04-06T21:17:51;96727.94;;;4.89;50.87
44001;BME280;29660;42.892;24.710;2023-04-06T21:23:13;96735.31;;;4.87;51.13
44001;BME280;29660;42.892;24.710;2023-04-06T21:28:35;96403.69;;;2.76;51.52
44001;BME280;29660;42.892;24.710;2023-04-06T21:33:57;96723.66;;;4.83;51.83
44001;BME280;29660;42.892;24.710;2023-04-06T21:39:19;96433.38;;;3.03;52.09
44001;BME280;29660;42.892;24.710;2023-04-06T21:44:41;96665.66;;;4.56;51.61
44001;BME280;29660;42.892;24.710;2023-04-06T21:50:04;96745.91;;;4.92;51.35
44001;BME280;29660;42.892;24.710;2023-04-06T21:55:26;96654.28;;;4.50;52.15
44001;BME280;29660;42.892;24.710;2023-04-06T22:00:48;96427.56;;;3.01;52.25
44001;BME280;29660;42.892;24.710;2023-04-06T22:06:11;96426.00;;;3.05;51.49
44001;BME280;29660;42.892;24.710;2023-04-06T22:11:33;96434.41;;;3.02;52.66
44001;BME280;29660;42.892;24.710;2023-04-06T22:16:55;96680.75;;;4.60;52.53
44001;BME280;29660;42.892;24.710;2023-04-06T22:22:17;96687.06;;;4.59;53.34
44001;BME280;29660;42.892;24.710;2023-04-06T22:27:39;96434.41;;;3.02;53.53
44001;BME280;29660;42.892;24.710;2023-04-06T22:33:20;96472.78;;;3.25;52.84
44001;BME280;29660;42.892;24.710;2023-04-06T22:38:42;96638.06;;;4.26;54.18
44001;BME280;29660;42.892;24.710;2023-04-06T22:44:05;96440.22;;;2.99;54.47
44001;BME280;29660;42.892;24.710;2023-04-06T22:49:27;96435.44;;;2.96;54.33
44001;BME280;29660;42.892;24.710;2023-04-06T22:54:49;96698.13;;;4.51;54.58
44001;BME280;29660;42.892;24.710;2023-04-06T23:00:12;96728.94;;;4.83;53.54
44001;BME280;29660;42.892;24.710;2023-04-06T23:05:34;96517.22;;;3.43;53.59
44001;BME280;29660;42.892;24.710;2023-04-06T23:10:56;96553.00;;;3.72;52.47
44001;BME280;29660;42.892;24.710;2023-04-06T23:16:18;96655.25;;;4.34;53.89
44001;BME280;29660;42.892;24.710;2023-04-06T23:21:40;96721.00;;;4.78;53.05
44001;BME280;29660;42.892;24.710;2023-04-06T23:27:21;96448.41;;;3.03;53.31
44001;BME280;29660;42.892;24.710;2023-04-06T23:32:43;96650.78;;;4.34;53.89
44001;BME280;29660;42.892;24.710;2023-04-06T23:38:05;96181.38;;;1.22;53.71
44001;BME280;29660;42.892;24.710;2023-04-06T23:43:27;96342.75;;;2.30;53.21
44001;BME280;29660;42.892;24.710;2023-04-06T23:48:49;96697.91;;;4.58;54.34
44001;BME280;29660;42.892;24.710;2023-04-06T23:54:30;96461.31;;;3.04;56.08
44001;BME280;29660;42.892;24.710;2023-04-06T23:59:52;96559.75;;;3.57;57.04
